Time;durP1;ratioP1;P1;durP2;ratioP2;P2;SDS_P1;SDS_P2;PMS_P1;PMS_P2;Temp;Humidity;BMP_temperature;BMP_pressure;BME280_temperature;BME280_humidity;BME280_pressure;Samples;Min_cycle;Max_cycle;Signal;HPM_P1;HPM_P2
2021/04/05 00:01:24;;;;;;;18.38;12.40;;;;;;;;;;5073839;28;20097;-60
2021/04/05 00:03:50;;;;;;;19.63;13.85;;;;;;;;;;5074825;28;20115;-60
2021/04/05 00:06:18;;;;;;;18.38;12.45;;;;;;;;;;5075193;28;21747;-60
2021/04/05 00:08:44;;;;;;;18.80;12.80;;;;;;;;;;5074136;28;20041;-60
2021/04/05 00:11:10;;;;;;;20.00;13.57;;;;;;;;;;5074930;28;20561;-59
2021/04/05 00:13:37;;;;;;;20.15;13.23;;;;;;;;;;5074333;28;20032;-58
2021/04/05 00:16:04;;;;;;;21.33;13.65;;;;;;;;;;5061364;28;20020;-60
2021/04/05 00:18:30;;;;;;;20.70;13.63;;;;;;;;;;5075026;28;20044;-59
2021/04/05 00:20:57;;;;;;;19.50;13.25;;;;;;;;;;5056785;28;20020;-61
2021/04/05 00:23:24;;;;;;;21.27;12.65;;;;;;;;;;5074293;28;20032;-60
2021/04/05 00:25:50;;;;;;;19.52;13.07;;;;;;;;;;5075111;28;20032;-59
2021/04/05 00:28:16;;;;;;;18.17;13.05;;;;;;;;;;5074635;28;20025;-59
2021/04/05 00:30:42;;;;;;;20.42;14.40;;;;;;;;;;5074509;28;20040;-59
2021/04/05 00:33:09;;;;;;;22.80;14.65;;;;;;;;;;5073982;28;20394;-59
2021/04/05 00:35:35;;;;;;;20.63;14.13;;;;;;;;;;5073613;28;20391;-63
2021/04/05 00:38:04;;;;;;;22.10;14.43;;;;;;;;;;5074599;28;20040;-59
2021/04/05 00:40:31;;;;;;;21.10;13.50;;;;;;;;;;5073590;28;20474;-59
2021/04/05 00:42:57;;;;;;;23.73;14.88;;;;;;;;;;5074353;28;20037;-60
2021/04/05 00:45:24;;;;;;;25.58;14.88;;;;;;;;;;5074116;28;20029;-60
2021/04/05 00:47:52;;;;;;;23.52;15.20;;;;;;;;;;5074198;28;20139;-59
2021/04/05 00:50:19;;;;;;;21.88;14.77;;;;;;;;;;5073665;28;20012;-60
2021/04/05 00:52:48;;;;;;;21.17;14.75;;;;;;;;;;5074270;28;20029;-60
2021/04/05 00:55:15;;;;;;;19.45;14.07;;;;;;;;;;5073833;28;20016;-59
2021/04/05 00:57:41;;;;;;;21.10;15.38;;;;;;;;;;5073845;28;20040;-60
2021/04/05 01:00:20;;;;;;;20.23;15.32;;;;;;;;;;5073447;28;20013;-60
2021/04/05 01:02:47;;;;;;;21.67;14.60;;;;;;;;;;5074006;28;20075;-60
2021/04/05 01:05:13;;;;;;;22.27;15.20;;;;;;;;;;5073603;28;20467;-59
2021/04/05 01:07:40;;;;;;;23.63;16.23;;;;;;;;;;5073411;28;20048;-60
2021/04/05 01:10:07;;;;;;;22.15;14.23;;;;;;;;;;5073144;28;20048;-58
2021/04/05 01:12:33;;;;;;;23.42;15.10;;;;;;;;;;5073921;28;20500;-60
2021/04/05 01:14:59;;;;;;;23.23;15.55;;;;;;;;;;5073416;28;20131;-61
2021/04/05 01:17:25;;;;;;;25.38;15.60;;;;;;;;;;5073658;28;20032;-60
2021/04/05 01:19:51;;;;;;;24.75;15.57;;;;;;;;;;5073472;28;20103;-59
2021/04/05 01:22:17;;;;;;;22.85;14.82;;;;;;;;;;5073244;28;20474;-59
2021/04/05 01:24:44;;;;;;;19.45;14.15;;;;;;;;;;5073320;28;20032;-60
2021/04/05 01:27:10;;;;;;;21.20;14.30;;;;;;;;;;5073354;28;20052;-60
2021/04/05 01:29:37;;;;;;;20.42;14.73;;;;;;;;;;5072822;28;20078;-60
2021/04/05 01:32:03;;;;;;;21.98;14.82;;;;;;;;;;5073337;28;20421;-60
2021/04/05 01:34:29;;;;;;;21.73;15.70;;;;;;;;;;5073177;28;20103;-59
2021/04/05 01:37:02;;;;;;;23.40;14.82;;;;;;;;;;5071556;28;20031;-60
2021/04/05 01:39:28;;;;;;;22.08;14.63;;;;;;;;;;5073180;28;20040;-60
2021/04/05 01:41:54;;;;;;;20.42;14.60;;;;;;;;;;5072644;28;20021;-59
2021/04/05 01:44:20;;;;;;;25.85;16.05;;;;;;;;;;5072917;28;20021;-59
2021/04/05 01:46:46;;;;;;;20.60;15.43;;;;;;;;;;5072466;28;20059;-60
2021/04/05 01:49:12;;;;;;;20.77;15.18;;;;;;;;;;5072770;28;20052;-59
2021/04/05 01:51:38;;;;;;;24.73;16.30;;;;;;;;;;5072486;28;20028;-59
2021/04/05 01:54:04;;;;;;;20.60;14.38;;;;;;;;;;5072783;28;20029;-59
2021/04/05 01:56:30;;;;;;;22.00;14.70;;;;;;;;;;5072563;28;20029;-60
2021/04/05 01:58:56;;;;;;;22.15;13.95;;;;;;;;;;5072860;28;20051;-61
2021/04/05 02:01:23;;;;;;;24.02;15.40;;;;;;;;;;5072857;28;20036;-60
2021/04/05 02:03:50;;;;;;;21.98;14.32;;;;;;;;;;5072601;28;20429;-62
2021/04/05 02:06:16;;;;;;;21.95;14.75;;;;;;;;;;5072753;28;20032;-59
2021/04/05 02:08:43;;;;;;;21.73;14.85;;;;;;;;;;5071541;28;20048;-59
2021/04/05 02:11:13;;;;;;;20.48;13.75;;;;;;;;;;5072530;28;20032;-59
2021/04/05 02:13:40;;;;;;;24.15;14.20;;;;;;;;;;5072200;28;20039;-59
2021/04/05 02:16:06;;;;;;;21.52;14.73;;;;;;;;;;5072452;28;20033;-58
2021/04/05 02:18:32;;;;;;;21.05;14.13;;;;;;;;;;5072179;28;20040;-59
2021/04/05 02:20:58;;;;;;;20.70;14.98;;;;;;;;;;5072467;28;20021;-60
2021/04/05 02:23:25;;;;;;;22.50;15.27;;;;;;;;;;5074441;28;20351;-60
2021/04/05 02:26:12;;;;;;;27.35;15.63;;;;;;;;;;5074401;28;20025;-60
2021/04/05 02:28:42;;;;;;;26.17;14.60;;;;;;;;;;5074775;28;20514;-59
2021/04/05 02:31:10;;;;;;;18.95;13.73;;;;;;;;;;5075407;28;20104;-61
2021/04/05 02:33:36;;;;;;;20.30;14.38;;;;;;;;;;5074702;28;20088;-61
2021/04/05 02:36:03;;;;;;;20.20;13.73;;;;;;;;;;5075102;28;20032;-64
2021/04/05 02:38:29;;;;;;;21.23;14.82;;;;;;;;;;5074433;28;20413;-60
2021/04/05 02:40:55;;;;;;;21.27;14.65;;;;;;;;;;5075190;28;20090;-60
2021/04/05 02:43:21;;;;;;;22.08;14.48;;;;;;;;;;5073578;28;20378;-61
2021/04/05 02:45:47;;;;;;;22.60;14.75;;;;;;;;;;5072150;28;20031;-59
2021/04/05 02:48:14;;;;;;;20.13;14.65;;;;;;;;;;5071918;28;20021;-59
2021/04/05 02:50:40;;;;;;;22.52;14.82;;;;;;;;;;5071992;28;20039;-60
2021/04/05 02:53:07;;;;;;;18.83;13.98;;;;;;;;;;5071744;28;20029;-59
2021/04/05 02:55:34;;;;;;;21.05;14.98;;;;;;;;;;5072251;28;20111;-60
2021/04/05 02:58:03;;;;;;;22.55;14.85;;;;;;;;;;5071753;28;20037;-59
2021/04/05 03:00:29;;;;;;;;;;;;;;;;;;5076358;28;20091;-60
2021/04/05 03:02:56;;;;;;;25.38;14.30;;;;;;;;;;5056017;28;19912;-59
2021/04/05 03:05:23;;;;;;;21.00;14.63;;;;;;;;;;5076394;28;20048;-60
2021/04/05 03:07:50;;;;;;;21.48;13.90;;;;;;;;;;5076022;28;20048;-60
2021/04/05 03:10:16;;;;;;;23.00;14.82;;;;;;;;;;5075951;28;20021;-59
2021/04/05 03:12:43;;;;;;;21.90;13.93;;;;;;;;;;5067203;28;20020;-59
2021/04/05 03:15:10;;;;;;;22.10;14.70;;;;;;;;;;5071181;28;20020;-58
2021/04/05 03:17:37;;;;;;;19.83;13.13;;;;;;;;;;5076152;28;20036;-60
2021/04/05 03:20:14;;;;;;;21.63;14.25;;;;;;;;;;5075447;28;20020;-60
2021/04/05 03:22:41;;;;;;;19.75;13.43;;;;;;;;;;5062718;28;20059;-60
2021/04/05 03:25:34;;;;;;;21.02;13.88;;;;;;;;;;5076044;28;20103;-60
2021/04/05 03:28:00;;;;;;;21.88;14.40;;;;;;;;;;5060662;28;20028;-59
2021/04/05 03:30:31;;;;;;;24.08;14.70;;;;;;;;;;5075197;28;20032;-60
2021/04/05 03:33:16;;;;;;;20.50;14.02;;;;;;;;;;5072271;28;20455;-60
2021/04/05 03:35:44;;;;;;;19.92;13.57;;;;;;;;;;5075192;28;20029;-60
2021/04/05 03:38:15;;;;;;;23.67;14.88;;;;;;;;;;5057732;28;20052;-59
2021/04/05 03:40:41;;;;;;;24.15;14.70;;;;;;;;;;5075506;28;20035;-59
2021/04/05 03:43:11;;;;;;;22.88;14.20;;;;;;;;;;5075902;28;20389;-58
2021/04/05 03:45:42;;;;;;;22.33;14.60;;;;;;;;;;5075667;28;20408;-59
2021/04/05 03:48:08;;;;;;;21.48;13.85;;;;;;;;;;5075528;28;20033;-60
2021/04/05 03:50:39;;;;;;;24.67;14.57;;;;;;;;;;5075142;28;20012;-61
2021/04/05 03:53:11;;;;;;;19.95;12.98;;;;;;;;;;5074738;28;20048;-59
2021/04/05 03:55:39;;;;;;;20.08;13.98;;;;;;;;;;5073860;28;20025;-61
2021/04/05 03:58:05;;;;;;;20.60;13.60;;;;;;;;;;5074035;28;20040;-59
2021/04/05 04:00:32;;;;;;;22.20;14.43;;;;;;;;;;5073810;28;20041;-58
2021/04/05 04:03:00;;;;;;;17.67;13.13;;;;;;;;;;5074546;28;20093;-60
2021/04/05 04:05:41;;;;;;;20.90;14.07;;;;;;;;;;5074070;28;20107;-59
2021/04/05 04:08:34;;;;;;;19.85;13.35;;;;;;;;;;5073671;28;20072;-59
2021/04/05 04:10:58;;;;;;;19.98;13.52;;;;;;;;;;5073354;28;20440;-60
2021/04/05 04:13:26;;;;;;;21.08;13.35;;;;;;;;;;5073690;28;20524;-59
2021/04/05 04:15:53;;;;;;;21.58;13.73;;;;;;;;;;5073999;28;20017;-58
2021/04/05 04:18:19;;;;;;;20.00;13.57;;;;;;;;;;5073467;28;20074;-59
2021/04/05 04:20:46;;;;;;;21.02;13.90;;;;;;;;;;5074256;28;20024;-59
2021/04/05 04:23:14;;;;;;;19.98;12.90;;;;;;;;;;5074809;28;20420;-59
2021/04/05 04:25:40;;;;;;;20.25;13.13;;;;;;;;;;5074610;28;20021;-58
2021/04/05 04:28:06;;;;;;;20.02;11.85;;;;;;;;;;5074518;28;20031;-58
2021/04/05 04:30:33;;;;;;;19.90;13.35;;;;;;;;;;5074385;28;20466;-59
2021/04/05 04:33:03;;;;;;;18.33;12.93;;;;;;;;;;5073910;28;20029;-59
2021/04/05 04:35:29;;;;;;;20.73;13.82;;;;;;;;;;5061674;28;20102;-59
2021/04/05 04:37:56;;;;;;;19.70;13.57;;;;;;;;;;5074827;28;20067;-59
2021/04/05 04:40:23;;;;;;;20.60;13.02;;;;;;;;;;5073629;28;20016;-60
2021/04/05 04:42:49;;;;;;;17.77;12.40;;;;;;;;;;5074109;28;20033;-59
2021/04/05 04:45:16;;;;;;;20.63;12.40;;;;;;;;;;5074110;28;20369;-60
2021/04/05 04:47:42;;;;;;;20.40;13.70;;;;;;;;;;5074248;28;20025;-60
2021/04/05 04:50:09;;;;;;;21.15;12.85;;;;;;;;;;5055833;28;20033;-59
2021/04/05 04:52:35;;;;;;;19.67;13.57;;;;;;;;;;5073988;28;20021;-59
2021/04/05 04:55:01;;;;;;;22.70;13.30;;;;;;;;;;5074074;28;20089;-60
2021/04/05 04:57:27;;;;;;;20.75;13.07;;;;;;;;;;5073704;28;20032;-59
2021/04/05 04:59:54;;;;;;;21.38;13.63;;;;;;;;;;5073713;28;20056;-59
2021/04/05 05:02:20;;;;;;;23.60;13.55;;;;;;;;;;5072512;28;20021;-59
2021/04/05 05:04:47;;;;;;;25.65;14.10;;;;;;;;;;5073734;28;20108;-60
2021/04/05 05:07:13;;;;;;;23.98;14.98;;;;;;;;;;5069775;28;20070;-59
2021/04/05 05:09:40;;;;;;;22.08;14.23;;;;;;;;;;5073360;28;20099;-59
2021/04/05 05:12:07;;;;;;;21.08;13.90;;;;;;;;;;5073294;28;20099;-60
2021/04/05 05:14:33;;;;;;;19.90;13.00;;;;;;;;;;5073601;28;20543;-59
2021/04/05 05:16:59;;;;;;;25.65;13.98;;;;;;;;;;5073535;28;20686;-60
2021/04/05 05:19:25;;;;;;;24.67;13.63;;;;;;;;;;5072963;28;20073;-59
2021/04/05 05:21:53;;;;;;;22.65;13.43;;;;;;;;;;5072687;28;20040;-60
2021/04/05 05:24:21;;;;;;;19.87;13.50;;;;;;;;;;5073295;28;20035;-60
2021/04/05 05:26:49;;;;;;;19.85;12.23;;;;;;;;;;5073773;28;20028;-59
2021/04/05 05:29:18;;;;;;;22.20;14.02;;;;;;;;;;5073266;28;20031;-59
2021/04/05 05:31:44;;;;;;;21.25;13.95;;;;;;;;;;5073029;28;20027;-59
2021/04/05 05:34:11;;;;;;;22.02;15.10;;;;;;;;;;5073367;28;20028;-60
2021/04/05 05:36:38;;;;;;;30.73;22.00;;;;;;;;;;5073091;28;20569;-60
2021/04/05 05:39:05;;;;;;;27.70;17.90;;;;;;;;;;5067819;28;20040;-59
2021/04/05 05:41:49;;;;;;;33.00;20.85;;;;;;;;;;5065131;28;20024;-59
2021/04/05 05:44:19;;;;;;;23.85;16.70;;;;;;;;;;5062448;28;20032;-60
2021/04/05 05:47:05;;;;;;;21.88;14.63;;;;;;;;;;5060923;28;20033;-60
2021/04/05 05:49:48;;;;;;;20.02;13.68;;;;;;;;;;4994293;28;20046;-62
2021/04/05 05:52:28;;;;;;;20.30;15.10;;;;;;;;;;4996389;28;20041;-65
2021/04/05 05:55:02;;;;;;;20.95;13.05;;;;;;;;;;4996690;28;20085;-60
2021/04/05 05:57:30;;;;;;;21.45;14.15;;;;;;;;;;4995522;28;20034;-61
2021/04/05 06:00:07;;;;;;;18.40;12.67;;;;;;;;;;4993492;28;20070;-60
2021/04/05 06:02:36;;;;;;;20.65;12.80;;;;;;;;;;4995041;28;20260;-63
2021/04/05 06:05:02;;;;;;;;;;;;;;;;;;4991402;28;20026;-59
2021/04/05 06:07:47;;;;;;;20.08;13.30;;;;;;;;;;4991024;28;19968;-60
2021/04/05 06:10:31;;;;;;;22.80;13.43;;;;;;;;;;4983346;28;20041;-60
2021/04/05 06:13:20;;;;;;;21.02;14.27;;;;;;;;;;4991014;28;20481;-60
2021/04/05 06:15:46;;;;;;;;;;;;;;;;;;4933669;29;20035;-60
2021/04/05 06:18:22;;;;;;;20.95;12.90;;;;;;;;;;4933203;29;20353;-60
2021/04/05 06:21:06;;;;;;;20.27;12.23;;;;;;;;;;4932847;29;20032;-61
2021/04/05 06:23:38;;;;;;;20.17;14.10;;;;;;;;;;4933009;29;20053;-60
2021/04/05 06:26:04;;;;;;;21.05;12.43;;;;;;;;;;4944121;28;20058;-62
2021/04/05 06:28:33;;;;;;;19.27;13.07;;;;;;;;;;4971125;28;20031;-61
2021/04/05 06:31:18;;;;;;;23.70;12.70;;;;;;;;;;4971617;28;20450;-62
2021/04/05 06:33:50;;;;;;;17.90;12.48;;;;;;;;;;4971104;28;20511;-61
2021/04/05 06:36:38;;;;;;;18.60;11.82;;;;;;;;;;4971593;28;20381;-62
2021/04/05 06:39:10;;;;;;;20.65;13.27;;;;;;;;;;4971089;28;20129;-61
2021/04/05 06:41:36;;;;;;;19.67;12.65;;;;;;;;;;4971515;28;20027;-60
2021/04/05 06:44:17;;;;;;;20.30;13.68;;;;;;;;;;4971410;28;20191;-59
2021/04/05 06:46:43;;;;;;;20.70;13.85;;;;;;;;;;4963510;28;20078;-61
2021/04/05 06:49:29;;;;;;;23.38;13.65;;;;;;;;;;4970464;28;20022;-60
2021/04/05 06:52:00;;;;;;;22.90;13.52;;;;;;;;;;4982317;28;20044;-60
2021/04/05 06:54:26;;;;;;;21.17;13.93;;;;;;;;;;5057810;28;20032;-60
2021/04/05 06:57:11;;;;;;;19.02;11.88;;;;;;;;;;5060839;28;20074;-59
2021/04/05 06:59:56;;;;;;;23.08;12.73;;;;;;;;;;5065762;28;20020;-61
2021/04/05 07:02:41;;;;;;;21.35;12.75;;;;;;;;;;5058046;28;20356;-58
2021/04/05 07:05:19;;;;;;;22.08;12.73;;;;;;;;;;5058795;28;20025;-60
2021/04/05 07:07:54;;;;;;;20.15;13.05;;;;;;;;;;5060720;28;20061;-60
2021/04/05 07:10:27;;;;;;;22.92;13.80;;;;;;;;;;5067613;28;20047;-62
2021/04/05 07:12:53;;;;;;;22.42;11.85;;;;;;;;;;5071620;28;20029;-61
2021/04/05 07:15:29;;;;;;;20.70;13.10;;;;;;;;;;5071558;28;20390;-60
2021/04/05 07:18:09;;;;;;;19.85;11.95;;;;;;;;;;5071730;28;20043;-61
2021/04/05 07:20:53;;;;;;;18.80;11.65;;;;;;;;;;5071227;28;20090;-60
2021/04/05 07:23:22;;;;;;;18.40;11.30;;;;;;;;;;5070833;28;20028;-60
2021/04/05 07:25:48;;;;;;;;;;;;;;;;;;5071237;28;20016;-60
2021/04/05 07:28:20;;;;;;;15.35;10.80;;;;;;;;;;5068119;28;20281;-61
2021/04/05 07:31:04;;;;;;;16.83;11.10;;;;;;;;;;5071659;28;20540;-59
2021/04/05 07:33:38;;;;;;;19.13;10.80;;;;;;;;;;5066134;28;20036;-60
2021/04/05 07:36:16;;;;;;;18.98;10.77;;;;;;;;;;5071943;28;20028;-63
2021/04/05 07:38:45;;;;;;;17.33;11.55;;;;;;;;;;5072658;28;20063;-60
2021/04/05 07:41:34;;;;;;;16.90;10.80;;;;;;;;;;5071851;28;20502;-61
2021/04/05 07:44:00;;;;;;;18.60;11.13;;;;;;;;;;4970166;28;20035;-63
2021/04/05 07:46:33;;;;;;;16.27;11.48;;;;;;;;;;4967992;28;20046;-66
2021/04/05 07:48:59;;;;;;;14.65;11.10;;;;;;;;;;4972756;28;20042;-62
2021/04/05 07:51:31;;;;;;;19.20;12.60;;;;;;;;;;4977768;28;20026;-64
2021/04/05 07:54:07;;;;;;;20.83;11.38;;;;;;;;;;4971020;28;20027;-62
2021/04/05 07:56:51;;;;;;;16.13;11.90;;;;;;;;;;4975063;28;20107;-61
2021/04/05 07:59:34;;;;;;;18.05;12.00;;;;;;;;;;4971236;28;20518;-61
2021/04/05 08:02:04;;;;;;;18.02;12.30;;;;;;;;;;4974878;28;20039;-61
2021/04/05 08:04:30;;;;;;;20.00;12.35;;;;;;;;;;4973211;28;20038;-61
2021/04/05 08:06:56;;;;;;;19.25;13.32;;;;;;;;;;4973495;28;20034;-60
2021/04/05 08:09:25;;;;;;;17.48;11.95;;;;;;;;;;4970770;28;20205;-62
2021/04/05 08:11:54;;;;;;;22.52;12.10;;;;;;;;;;4973708;28;20491;-58
2021/04/05 08:14:20;;;;;;;22.13;11.15;;;;;;;;;;4972771;28;20166;-57
2021/04/05 08:16:59;;;;;;;18.15;11.73;;;;;;;;;;4973264;28;20050;-57
2021/04/05 08:19:51;;;;;;;17.98;11.63;;;;;;;;;;4973029;28;20041;-58
2021/04/05 08:22:22;;;;;;;18.42;11.77;;;;;;;;;;5062475;28;20040;-57
2021/04/05 08:24:59;;;;;;;17.48;10.55;;;;;;;;;;5074469;28;20085;-57
2021/04/05 08:27:26;;;;;;;17.15;11.65;;;;;;;;;;5074827;28;20023;-57
2021/04/05 08:29:55;;;;;;;17.95;11.52;;;;;;;;;;5055913;28;20371;-57
2021/04/05 08:32:38;;;;;;;19.13;11.38;;;;;;;;;;5074709;28;20032;-56
2021/04/05 08:35:19;;;;;;;17.85;11.35;;;;;;;;;;5074083;28;20546;-56
2021/04/05 08:37:58;;;;;;;19.60;11.73;;;;;;;;;;5074579;28;20031;-58
2021/04/05 08:40:44;;;;;;;18.80;11.55;;;;;;;;;;5074292;28;20082;-56
2021/04/05 08:43:13;;;;;;;15.60;10.93;;;;;;;;;;5074571;28;20024;-57
2021/04/05 08:45:50;;;;;;;18.38;11.25;;;;;;;;;;5073905;28;20031;-57
2021/04/05 08:48:17;;;;;;;17.55;11.27;;;;;;;;;;5074724;28;20520;-58
2021/04/05 08:50:47;;;;;;;17.73;12.15;;;;;;;;;;5073781;28;20545;-59
2021/04/05 08:53:14;;;;;;;19.55;10.98;;;;;;;;;;5074442;28;20048;-56
2021/04/05 08:55:41;;;;;;;17.90;10.02;;;;;;;;;;5073348;28;20503;-59
2021/04/05 08:58:09;;;;;;;18.50;10.57;;;;;;;;;;5072877;28;20040;-57
2021/04/05 09:00:37;;;;;;;18.60;10.70;;;;;;;;;;5070868;28;20021;-57
2021/04/05 09:03:09;;;;;;;18.27;10.88;;;;;;;;;;5059216;28;20025;-56
2021/04/05 09:05:41;;;;;;;14.52;9.63;;;;;;;;;;5065471;28;20020;-58
2021/04/05 09:08:07;;;;;;;13.25;8.90;;;;;;;;;;5071472;28;20048;-57
2021/04/05 09:10:42;;;;;;;14.60;9.32;;;;;;;;;;5073603;28;20024;-58
2021/04/05 09:13:11;;;;;;;11.75;7.88;;;;;;;;;;5073569;28;20112;-55
2021/04/05 09:15:55;;;;;;;11.50;7.38;;;;;;;;;;5073473;28;20062;-59
2021/04/05 09:18:30;;;;;;;10.82;5.72;;;;;;;;;;5073440;28;20040;-57
2021/04/05 09:21:19;;;;;;;12.80;7.55;;;;;;;;;;5073482;28;20030;-58
2021/04/05 09:23:56;;;;;;;10.32;7.07;;;;;;;;;;5061329;28;20059;-58
2021/04/05 09:26:35;;;;;;;13.40;7.18;;;;;;;;;;5072910;28;20162;-57
2021/04/05 09:29:09;;;;;;;9.20;5.00;;;;;;;;;;5073467;28;20027;-57
2021/04/05 09:31:35;;;;;;;5.45;4.07;;;;;;;;;;5072727;28;20147;-58
2021/04/05 09:34:07;;;;;;;5.65;4.43;;;;;;;;;;5073550;28;20111;-57
2021/04/05 09:36:52;;;;;;;9.25;5.05;;;;;;;;;;5072780;28;20028;-56
2021/04/05 09:39:33;;;;;;;8.82;4.95;;;;;;;;;;5062468;28;20051;-57
2021/04/05 09:42:09;;;;;;;5.20;3.70;;;;;;;;;;5070866;28;20046;-57
2021/04/05 09:44:41;;;;;;;7.85;4.75;;;;;;;;;;5072359;28;20039;-57
2021/04/05 09:47:16;;;;;;;9.10;6.45;;;;;;;;;;5072435;28;20497;-58
2021/04/05 09:50:01;;;;;;;10.05;6.68;;;;;;;;;;5073169;28;20028;-58
2021/04/05 09:52:39;;;;;;;10.15;6.65;;;;;;;;;;5072968;28;20028;-57
2021/04/05 09:55:06;;;;;;;12.48;6.38;;;;;;;;;;5071181;28;20078;-57
2021/04/05 09:57:36;;;;;;;11.13;7.43;;;;;;;;;;5073000;28;20052;-57
2021/04/05 10:00:08;;;;;;;9.88;6.80;;;;;;;;;;5072193;28;20471;-57
2021/04/05 10:02:42;;;;;;;8.73;6.85;;;;;;;;;;5072355;28;20028;-59
2021/04/05 10:05:10;;;;;;;10.93;6.95;;;;;;;;;;5072924;28;20025;-57
2021/04/05 10:07:40;;;;;;;11.07;7.07;;;;;;;;;;5070329;28;20028;-58
2021/04/05 10:10:06;;;;;;;10.50;7.13;;;;;;;;;;5072416;28;20089;-56
2021/04/05 10:12:33;;;;;;;11.52;7.00;;;;;;;;;;5072344;28;20036;-59
2021/04/05 10:15:00;;;;;;;10.23;6.20;;;;;;;;;;5072440;28;20032;-58
2021/04/05 10:17:27;;;;;;;10.10;6.20;;;;;;;;;;5072616;28;20029;-57
2021/04/05 10:19:57;;;;;;;10.00;6.90;;;;;;;;;;5072185;28;20028;-58
2021/04/05 10:22:23;;;;;;;10.60;6.55;;;;;;;;;;5072258;28;20505;-57
2021/04/05 10:24:52;;;;;;;10.15;7.25;;;;;;;;;;5072204;28;20043;-57
2021/04/05 10:27:19;;;;;;;7.80;6.07;;;;;;;;;;5072692;28;20025;-57
2021/04/05 10:29:47;;;;;;;12.38;6.68;;;;;;;;;;5071817;28;20033;-59
2021/04/05 10:32:15;;;;;;;8.93;6.88;;;;;;;;;;5072274;28;20025;-57
2021/04/05 10:34:45;;;;;;;9.57;6.85;;;;;;;;;;5071639;28;20025;-57
2021/04/05 10:37:14;;;;;;;13.68;7.15;;;;;;;;;;5072277;28;20031;-57
2021/04/05 10:39:46;;;;;;;8.82;5.85;;;;;;;;;;5058532;28;20099;-56
2021/04/05 10:42:19;;;;;;;9.85;5.93;;;;;;;;;;5053841;28;20070;-57
2021/04/05 10:44:47;;;;;;;11.93;6.47;;;;;;;;;;5072195;28;20405;-58
2021/04/05 10:47:22;;;;;;;9.82;6.13;;;;;;;;;;5072124;28;20101;-61
2021/04/05 10:49:49;;;;;;;13.15;7.72;;;;;;;;;;5072061;28;20351;-59
2021/04/05 10:52:22;;;;;;;11.02;6.97;;;;;;;;;;5072476;28;20024;-58
2021/04/05 10:54:52;;;;;;;8.90;6.20;;;;;;;;;;5071777;28;20025;-59
2021/04/05 10:57:35;;;;;;;10.10;5.80;;;;;;;;;;5072454;28;20025;-60
2021/04/05 11:00:03;;;;;;;10.70;6.22;;;;;;;;;;5070573;28;20107;-58
2021/04/05 11:02:32;;;;;;;11.35;6.30;;;;;;;;;;5063550;28;20020;-58
2021/04/05 11:04:58;;;;;;;;;;;;;;;;;;5061539;28;20025;-57
2021/04/05 11:07:25;;;;;;;9.02;5.57;;;;;;;;;;5067116;28;20358;-57
2021/04/05 11:09:54;;;;;;;8.13;5.00;;;;;;;;;;5069595;28;20060;-63
2021/04/05 11:12:20;;;;;;;6.47;4.80;;;;;;;;;;5063425;28;20033;-57
2021/04/05 11:14:49;;;;;;;8.35;5.20;;;;;;;;;;5058258;28;20020;-57
2021/04/05 11:17:15;;;;;;;7.10;5.57;;;;;;;;;;5061955;28;20021;-58
2021/04/05 11:19:51;;;;;;;7.22;5.05;;;;;;;;;;5052087;28;20082;-58
2021/04/05 11:22:18;;;;;;;7.60;5.25;;;;;;;;;;5063966;28;20096;-58
2021/04/05 11:24:45;;;;;;;8.32;5.82;;;;;;;;;;5073870;28;20047;-61
2021/04/05 11:27:13;;;;;;;8.23;5.90;;;;;;;;;;5062592;28;20103;-59
2021/04/05 11:29:42;;;;;;;8.18;4.93;;;;;;;;;;5057656;28;20033;-62
2021/04/05 11:32:14;;;;;;;10.70;4.90;;;;;;;;;;5057009;28;20020;-58
2021/04/05 11:34:42;;;;;;;4.38;3.83;;;;;;;;;;5056652;28;20025;-58
2021/04/05 11:37:12;;;;;;;6.18;4.05;;;;;;;;;;5057002;28;20025;-61
2021/04/05 11:39:39;;;;;;;6.18;4.70;;;;;;;;;;5038585;28;20037;-58
2021/04/05 11:42:06;;;;;;;5.38;4.03;;;;;;;;;;5070399;28;20037;-58
2021/04/05 11:44:52;;;;;;;4.97;3.92;;;;;;;;;;5055284;28;20091;-58
2021/04/05 11:47:19;;;;;;;7.55;4.47;;;;;;;;;;5054965;28;20435;-59
2021/04/05 11:49:46;;;;;;;7.97;4.93;;;;;;;;;;5055111;28;20096;-60
2021/04/05 11:52:19;;;;;;;5.97;4.60;;;;;;;;;;5058203;28;20024;-60
2021/04/05 11:54:59;;;;;;;9.40;5.00;;;;;;;;;;5073711;28;20078;-57
2021/04/05 11:57:27;;;;;;;7.07;4.20;;;;;;;;;;5060414;28;20024;-61
2021/04/05 11:59:58;;;;;;;5.43;4.70;;;;;;;;;;5073586;28;20036;-57
2021/04/05 12:02:28;;;;;;;9.02;4.90;;;;;;;;;;5073760;28;20035;-57
2021/04/05 12:05:02;;;;;;;5.20;3.97;;;;;;;;;;5073586;28;20034;-58
2021/04/05 12:07:28;;;;;;;5.10;3.90;;;;;;;;;;5071311;28;20095;-57
2021/04/05 12:10:04;;;;;;;6.25;4.30;;;;;;;;;;5066588;28;20086;-61
2021/04/05 12:12:41;;;;;;;7.28;5.03;;;;;;;;;;5060330;28;20020;-58
2021/04/05 12:15:11;;;;;;;5.78;4.18;;;;;;;;;;5065100;28;20025;-59
2021/04/05 12:17:38;;;;;;;5.85;4.70;;;;;;;;;;5070479;28;20037;-60
2021/04/05 12:20:05;;;;;;;5.80;3.92;;;;;;;;;;5058678;28;20386;-62
2021/04/05 12:22:33;;;;;;;8.15;4.57;;;;;;;;;;5069895;28;20033;-61
2021/04/05 12:25:00;;;;;;;8.02;4.00;;;;;;;;;;5067457;28;20024;-61
2021/04/05 12:27:31;;;;;;;6.05;4.15;;;;;;;;;;5070172;28;20020;-61
2021/04/05 12:29:58;;;;;;;5.53;4.20;;;;;;;;;;5063495;28;20021;-60
2021/04/05 12:32:25;;;;;;;8.02;4.43;;;;;;;;;;5064744;28;20441;-61
2021/04/05 12:34:58;;;;;;;5.40;4.00;;;;;;;;;;5056929;28;20289;-62
2021/04/05 12:37:25;;;;;;;8.65;4.63;;;;;;;;;;5064877;28;20120;-61
2021/04/05 12:39:51;;;;;;;8.15;4.22;;;;;;;;;;5072395;28;20036;-62
2021/04/05 12:42:19;;;;;;;10.88;4.45;;;;;;;;;;5067517;28;20013;-62
2021/04/05 12:44:46;;;;;;;14.13;4.13;;;;;;;;;;5062535;28;20070;-61
2021/04/05 12:47:13;;;;;;;5.93;4.53;;;;;;;;;;5071806;28;20301;-61
2021/04/05 12:49:43;;;;;;;5.60;4.85;;;;;;;;;;5069649;28;20036;-62
2021/04/05 12:52:12;;;;;;;6.18;4.30;;;;;;;;;;5072395;28;20371;-62
2021/04/05 12:54:42;;;;;;;5.93;4.35;;;;;;;;;;5073477;28;20060;-61
2021/04/05 12:57:10;;;;;;;5.07;4.13;;;;;;;;;;5074268;28;20028;-62
2021/04/05 12:59:37;;;;;;;4.53;3.55;;;;;;;;;;5059455;28;20056;-62
2021/04/05 13:02:22;;;;;;;5.82;4.15;;;;;;;;;;5071536;28;20104;-63
2021/04/05 13:04:57;;;;;;;5.13;3.75;;;;;;;;;;5071016;28;20108;-62
2021/04/05 13:07:26;;;;;;;5.65;4.45;;;;;;;;;;5062918;28;20025;-61
2021/04/05 13:10:03;;;;;;;5.60;3.55;;;;;;;;;;5073720;28;20029;-62
2021/04/05 13:12:41;;;;;;;4.80;3.30;;;;;;;;;;5067612;28;20070;-61
2021/04/05 13:15:18;;;;;;;4.60;3.78;;;;;;;;;;5057789;28;20048;-62
2021/04/05 13:17:49;;;;;;;8.40;3.40;;;;;;;;;;5073418;28;20040;-62
2021/04/05 13:20:18;;;;;;;7.55;3.40;;;;;;;;;;5071069;28;20017;-61
2021/04/05 13:22:53;;;;;;;5.03;3.70;;;;;;;;;;5072107;28;20024;-61
2021/04/05 13:25:26;;;;;;;5.70;3.45;;;;;;;;;;5073098;28;20107;-61
2021/04/05 13:27:53;;;;;;;6.50;3.47;;;;;;;;;;5073372;28;20048;-62
2021/04/05 13:30:19;;;;;;;5.35;3.40;;;;;;;;;;5057675;28;20490;-61
2021/04/05 13:32:51;;;;;;;6.72;3.65;;;;;;;;;;5065442;28;20033;-62
2021/04/05 13:35:22;;;;;;;7.88;3.53;;;;;;;;;;5052148;28;20017;-63
2021/04/05 13:37:59;;;;;;;5.75;3.20;;;;;;;;;;5065246;28;20059;-62
2021/04/05 13:40:27;;;;;;;5.13;3.42;;;;;;;;;;5069511;28;20048;-63
2021/04/05 13:42:54;;;;;;;3.85;3.42;;;;;;;;;;5036433;28;20025;-61
2021/04/05 13:45:26;;;;;;;8.18;3.60;;;;;;;;;;5046058;28;20032;-60
2021/04/05 13:47:53;;;;;;;7.65;4.32;;;;;;;;;;5073222;28;20051;-63
2021/04/05 13:50:19;;;;;;;6.43;4.05;;;;;;;;;;5071353;28;20028;-61
2021/04/05 13:52:51;;;;;;;6.28;3.97;;;;;;;;;;5066446;28;20044;-61
2021/04/05 13:55:28;;;;;;;4.30;3.88;;;;;;;;;;5070551;28;20394;-62
2021/04/05 13:57:56;;;;;;;4.28;3.88;;;;;;;;;;5052776;28;20036;-63
2021/04/05 14:00:26;;;;;;;7.38;3.97;;;;;;;;;;5058436;28;20024;-64
2021/04/05 14:02:53;;;;;;;6.60;5.32;;;;;;;;;;5053759;28;20071;-62
2021/04/05 14:05:20;;;;;;;4.53;3.90;;;;;;;;;;5052554;28;20033;-62
2021/04/05 14:07:47;;;;;;;6.68;5.25;;;;;;;;;;5066145;28;20124;-62
2021/04/05 14:10:17;;;;;;;6.82;4.25;;;;;;;;;;5052585;28;20029;-62
2021/04/05 14:12:50;;;;;;;5.53;4.30;;;;;;;;;;5034991;28;20024;-64
2021/04/05 14:15:16;;;;;;;8.85;7.32;;;;;;;;;;5042132;28;20025;-62
2021/04/05 14:17:51;;;;;;;7.45;4.85;;;;;;;;;;5069935;28;20047;-61
2021/04/05 14:20:20;;;;;;;6.32;5.72;;;;;;;;;;5063601;28;20092;-65
2021/04/05 14:22:52;;;;;;;5.07;3.83;;;;;;;;;;5070707;28;20507;-63
2021/04/05 14:25:24;;;;;;;4.57;3.90;;;;;;;;;;5069251;28;20497;-62
2021/04/05 14:28:10;;;;;;;5.05;3.70;;;;;;;;;;5068875;28;20047;-63
2021/04/05 14:30:39;;;;;;;6.13;3.60;;;;;;;;;;5067160;28;20008;-64
2021/04/05 14:33:08;;;;;;;6.68;3.92;;;;;;;;;;5067517;28;20038;-64
2021/04/05 14:35:40;;;;;;;5.45;4.63;;;;;;;;;;5070680;28;20044;-63
2021/04/05 14:38:08;;;;;;;9.05;4.90;;;;;;;;;;5059545;28;20044;-63
2021/04/05 14:40:38;;;;;;;5.13;4.60;;;;;;;;;;5065109;28;20052;-63
2021/04/05 14:43:18;;;;;;;5.47;4.72;;;;;;;;;;5059334;28;20531;-64
2021/04/05 14:45:46;;;;;;;5.90;4.47;;;;;;;;;;5059195;28;20418;-62
2021/04/05 14:48:13;;;;;;;7.53;4.70;;;;;;;;;;5059063;28;20090;-65